createdAt,value
2023-02-16T00:00:04.756Z,1.50
2023-02-16T00:01:05.130Z,1.40
2023-02-16T00:02:04.767Z,1.40
2023-02-16T00:03:02.773Z,1.40
2023-02-16T00:04:02.825Z,1.40
2023-02-16T00:05:02.824Z,1.40
2023-02-16T00:06:02.783Z,1.40
2023-02-16T00:07:04.463Z,1.40
2023-02-16T00:08:04.485Z,1.40
2023-02-16T00:09:04.504Z,1.30
2023-02-16T00:10:04.481Z,1.30
2023-02-16T00:11:04.926Z,1.30
2023-02-16T00:12:04.525Z,1.30
2023-02-16T00:13:04.524Z,1.30
2023-02-16T00:14:04.579Z,1.30
2023-02-16T00:15:04.528Z,1.30
2023-02-16T00:16:04.611Z,1.30
2023-02-16T00:17:04.711Z,1.30
2023-02-16T00:18:04.712Z,1.30
2023-02-16T00:19:04.715Z,1.30
2023-02-16T00:20:04.719Z,1.30
2023-02-16T00:21:04.978Z,1.30
2023-02-16T00:22:04.704Z,1.30
2023-02-16T00:23:04.717Z,1.30
2023-02-16T00:24:02.636Z,1.30
2023-02-16T00:25:02.698Z,1.30
2023-02-16T00:26:02.750Z,1.30
2023-02-16T00:27:02.714Z,1.30
2023-02-16T00:28:02.674Z,1.20
2023-02-16T00:29:02.839Z,1.30
2023-02-16T00:30:02.941Z,1.30
2023-02-16T00:31:04.722Z,1.30
2023-02-16T00:32:04.676Z,1.30
2023-02-16T00:33:02.975Z,1.30
2023-02-16T00:34:02.920Z,1.30
2023-02-16T00:35:04.508Z,1.30
2023-02-16T00:36:04.590Z,1.20
2023-02-16T00:37:04.597Z,1.20
2023-02-16T00:38:04.598Z,1.20
2023-02-16T00:39:04.768Z,1.20
2023-02-16T00:40:04.788Z,1.20
2023-02-16T00:41:04.989Z,1.20
2023-02-16T00:42:04.764Z,1.20
2023-02-16T00:43:04.763Z,1.20
2023-02-16T00:44:04.742Z,1.20
2023-02-16T00:45:04.743Z,1.20
2023-02-16T00:46:04.769Z,1.20
2023-02-16T00:47:04.737Z,1.30
2023-02-16T00:48:04.758Z,1.30
2023-02-16T00:49:04.737Z,1.30
2023-02-16T00:50:04.788Z,1.30
2023-02-16T00:51:08.872Z,1.30
2023-02-16T00:52:02.872Z,1.30
2023-02-16T00:53:02.982Z,1.30
2023-02-16T00:54:02.973Z,1.30
2023-02-16T00:55:04.612Z,1.30
2023-02-16T00:56:04.604Z,1.30
2023-02-16T00:57:04.621Z,1.30
2023-02-16T00:58:04.769Z,1.30
2023-02-16T00:59:04.776Z,1.30
2023-02-16T01:00:04.772Z,1.30
2023-02-16T01:01:04.972Z,1.30
2023-02-16T01:02:04.770Z,1.30
2023-02-16T01:03:04.779Z,1.30
2023-02-16T01:04:04.835Z,1.30
2023-02-16T01:05:04.780Z,1.30
2023-02-16T01:06:02.747Z,1.30
2023-02-16T01:07:02.797Z,1.30
2023-02-16T01:08:02.769Z,1.30
2023-02-16T01:09:02.867Z,1.30
2023-02-16T01:10:04.650Z,1.30
2023-02-16T01:11:05.018Z,1.30
2023-02-16T01:12:04.628Z,1.30
2023-02-16T01:13:04.599Z,1.30
2023-02-16T01:14:04.810Z,1.30
2023-02-16T01:15:04.754Z,1.30
2023-02-16T01:16:04.864Z,1.30
2023-02-16T01:17:04.809Z,1.20
2023-02-16T01:18:04.801Z,1.20
2023-02-16T01:19:04.808Z,1.20
2023-02-16T01:20:04.790Z,1.20
2023-02-16T01:21:04.961Z,1.20
2023-02-16T01:22:04.778Z,1.20
2023-02-16T01:23:04.805Z,1.20
2023-02-16T01:24:04.772Z,1.20
2023-02-16T01:25:04.790Z,1.20
2023-02-16T01:26:04.828Z,1.20
2023-02-16T01:27:02.649Z,1.20
2023-02-16T01:28:02.664Z,1.20
2023-02-16T01:29:02.746Z,1.20
2023-02-16T01:30:02.813Z,1.20
2023-02-16T01:31:03.104Z,1.20
2023-02-16T01:32:02.917Z,1.20
2023-02-16T01:33:02.840Z,1.20
2023-02-16T01:34:02.870Z,1.20
2023-02-16T01:35:02.875Z,1.20
2023-02-16T01:36:02.967Z,1.20
2023-02-16T01:37:02.974Z,1.20
2023-02-16T01:38:03.044Z,1.30
2023-02-16T01:39:04.663Z,1.30
2023-02-16T01:40:04.621Z,1.30
2023-02-16T01:41:05.024Z,1.30
2023-02-16T01:42:04.853Z,1.30
2023-02-16T01:43:04.670Z,1.30
2023-02-16T01:44:04.653Z,1.30
2023-02-16T01:45:04.827Z,1.30
2023-02-16T01:46:04.889Z,1.30
2023-02-16T01:47:04.799Z,1.30
2023-02-16T01:48:04.803Z,1.30
2023-02-16T01:49:04.796Z,1.30
2023-02-16T01:50:04.874Z,1.30
2023-02-16T01:51:02.921Z,1.30
2023-02-16T01:52:02.699Z,1.20
2023-02-16T01:53:02.718Z,1.30
2023-02-16T01:54:02.800Z,1.20
2023-02-16T01:55:02.804Z,1.20
2023-02-16T01:56:04.830Z,1.30
2023-02-16T01:57:02.874Z,1.20
2023-02-16T01:58:03.019Z,1.20
2023-02-16T01:59:04.601Z,1.20
2023-02-16T02:00:04.672Z,1.20
2023-02-16T02:01:04.980Z,1.20
2023-02-16T02:02:04.685Z,1.20
2023-02-16T02:03:05.019Z,1.20
2023-02-16T02:04:04.804Z,1.20
2023-02-16T02:05:04.808Z,1.20
2023-02-16T02:06:04.837Z,1.20
2023-02-16T02:07:04.845Z,1.20
2023-02-16T02:08:04.837Z,1.20
2023-02-16T02:09:04.835Z,1.20
2023-02-16T02:10:04.856Z,1.20
2023-02-16T02:11:05.109Z,1.20
2023-02-16T02:12:04.825Z,1.20
2023-02-16T02:13:04.925Z,1.10
2023-02-16T02:14:04.835Z,1.20
2023-02-16T02:15:02.646Z,1.20
2023-02-16T02:16:02.757Z,1.20
2023-02-16T02:17:02.862Z,1.20
2023-02-16T02:18:02.943Z,1.20
2023-02-16T02:19:03.011Z,1.20
2023-02-16T02:20:03.006Z,1.20
2023-02-16T02:21:04.778Z,1.20
2023-02-16T02:22:04.689Z,1.20
2023-02-16T02:23:04.873Z,1.20
2023-02-16T02:24:04.879Z,1.30
2023-02-16T02:25:04.899Z,1.30
2023-02-16T02:26:04.840Z,1.30
2023-02-16T02:27:04.869Z,1.30
2023-02-16T02:28:04.832Z,1.30
2023-02-16T02:29:04.893Z,1.20
2023-02-16T02:30:04.872Z,1.20
2023-02-16T02:31:05.089Z,1.20
2023-02-16T02:32:04.904Z,1.20
2023-02-16T02:33:04.844Z,1.20
2023-02-16T02:34:04.851Z,1.20
2023-02-16T02:35:04.875Z,1.20
2023-02-16T02:36:02.727Z,1.20
2023-02-16T02:37:02.710Z,1.20
2023-02-16T02:38:02.710Z,1.20
2023-02-16T02:39:02.668Z,1.20
2023-02-16T02:40:02.771Z,1.20
2023-02-16T02:41:03.185Z,1.20
2023-02-16T02:42:02.796Z,1.20
2023-02-16T02:43:02.832Z,1.20
2023-02-16T02:44:02.846Z,1.20
2023-02-16T02:45:03.001Z,1.20
2023-02-16T02:46:04.673Z,1.20
2023-02-16T02:47:04.888Z,1.20
2023-02-16T02:48:04.735Z,1.20
2023-02-16T02:49:04.732Z,1.20
2023-02-16T02:50:04.872Z,1.10
2023-02-16T02:51:05.120Z,1.20
2023-02-16T02:52:04.871Z,1.20
2023-02-16T02:53:02.663Z,1.10
2023-02-16T02:54:02.698Z,1.10
2023-02-16T02:55:02.748Z,1.10
2023-02-16T02:56:02.777Z,1.10
2023-02-16T02:57:02.763Z,1.10
2023-02-16T02:58:02.832Z,1.10
2023-02-16T02:59:02.798Z,1.10
2023-02-16T03:00:02.971Z,1.10
2023-02-16T03:01:03.284Z,1.10
2023-02-16T03:02:03.069Z,1.10
2023-02-16T03:03:03.106Z,1.10
2023-02-16T03:04:03.085Z,1.10
2023-02-16T03:05:04.745Z,1.10
2023-02-16T03:06:04.741Z,1.10
2023-02-16T03:07:04.729Z,1.10
2023-02-16T03:08:04.742Z,1.10
2023-02-16T03:09:04.915Z,1.10
2023-02-16T03:10:04.879Z,1.10
2023-02-16T03:11:05.147Z,1.10
2023-02-16T03:12:04.857Z,1.10
2023-02-16T03:13:04.897Z,1.10
2023-02-16T03:14:02.702Z,1.00
2023-02-16T03:15:02.637Z,1.00
2023-02-16T03:16:02.738Z,1.00
2023-02-16T03:17:02.787Z,1.00
2023-02-16T03:18:02.747Z,1.00
2023-02-16T03:19:02.776Z,1.00
2023-02-16T03:20:02.806Z,1.00
2023-02-16T03:21:03.128Z,1.00
2023-02-16T03:22:02.860Z,1.00
2023-02-16T03:23:02.889Z,1.00
2023-02-16T03:24:02.894Z,0.90
2023-02-16T03:25:02.907Z,0.90
2023-02-16T03:26:02.857Z,0.90
2023-02-16T03:27:02.877Z,0.90
2023-02-16T03:28:02.895Z,0.90
2023-02-16T03:29:03.029Z,0.90
2023-02-16T03:30:03.024Z,0.90
2023-02-16T03:31:03.373Z,0.90
2023-02-16T03:32:03.101Z,0.90
2023-02-16T03:33:03.105Z,0.80
2023-02-16T03:34:03.084Z,0.80
2023-02-16T03:35:04.724Z,0.80
2023-02-16T03:36:04.658Z,0.80
2023-02-16T03:37:04.934Z,0.80
2023-02-16T03:38:04.745Z,0.80
2023-02-16T03:39:04.785Z,0.80
2023-02-16T03:40:05.035Z,0.80
2023-02-16T03:41:05.179Z,0.70
2023-02-16T03:42:04.909Z,0.70
2023-02-16T03:43:04.907Z,0.70
2023-02-16T03:44:04.925Z,0.70
2023-02-16T03:45:04.987Z,0.70
2023-02-16T03:46:04.961Z,0.70
2023-02-16T03:47:02.715Z,0.70
2023-02-16T03:48:02.698Z,0.70
2023-02-16T03:49:02.806Z,0.70
2023-02-16T03:50:02.806Z,0.60
2023-02-16T03:51:03.373Z,0.60
2023-02-16T03:52:02.933Z,0.60
2023-02-16T03:53:02.960Z,0.60
2023-02-16T03:54:02.972Z,0.60
2023-02-16T03:55:03.083Z,0.60
2023-02-16T03:56:03.117Z,0.50
2023-02-16T03:57:03.125Z,0.50
2023-02-16T03:58:03.174Z,0.50
2023-02-16T03:59:04.705Z,0.50
2023-02-16T04:00:04.745Z,0.50
2023-02-16T04:01:05.083Z,0.50
2023-02-16T04:02:05.005Z,0.50
2023-02-16T04:03:04.934Z,0.50
2023-02-16T04:04:04.959Z,0.50
2023-02-16T04:05:04.946Z,0.50
2023-02-16T04:06:04.941Z,0.40
2023-02-16T04:07:02.650Z,0.50
2023-02-16T04:08:02.725Z,0.40
2023-02-16T04:09:02.815Z,0.40
2023-02-16T04:10:02.776Z,0.40
2023-02-16T04:11:03.220Z,0.40
2023-02-16T04:12:02.988Z,0.40
2023-02-16T04:13:03.149Z,0.40
2023-02-16T04:14:03.113Z,0.40
2023-02-16T04:15:03.134Z,0.40
2023-02-16T04:16:04.710Z,0.40
2023-02-16T04:17:04.780Z,0.40
2023-02-16T04:18:04.817Z,0.40
2023-02-16T04:19:04.959Z,0.40
2023-02-16T04:20:04.807Z,0.40
2023-02-16T04:21:04.949Z,0.30
2023-02-16T04:22:05.014Z,0.30
2023-02-16T04:23:04.987Z,0.30
2023-02-16T04:24:05.007Z,0.30
2023-02-16T04:25:04.992Z,0.30
2023-02-16T04:26:02.756Z,0.20
2023-02-16T04:27:02.747Z,0.20
2023-02-16T04:28:02.744Z,0.20
2023-02-16T04:29:02.800Z,0.20
2023-02-16T04:30:02.862Z,0.20
2023-02-16T04:31:03.211Z,0.20
2023-02-16T04:32:03.013Z,0.20
2023-02-16T04:33:02.805Z,0.20
2023-02-16T04:34:02.944Z,0.20
2023-02-16T04:35:02.975Z,0.10
2023-02-16T04:36:03.032Z,0.10
2023-02-16T04:37:03.137Z,0.10
2023-02-16T04:38:03.214Z,0.10
2023-02-16T04:39:04.853Z,0.10
2023-02-16T04:40:04.834Z,0.10
2023-02-16T04:41:05.119Z,0.10
2023-02-16T04:42:05.003Z,0.10
2023-02-16T04:43:05.002Z,0.10
2023-02-16T04:44:04.990Z,0.10
2023-02-16T04:45:05.020Z,0.00
2023-02-16T04:46:02.735Z,0.00
2023-02-16T04:47:02.865Z,0.00
2023-02-16T04:48:02.990Z,0.00
2023-02-16T04:49:02.977Z,0.00
2023-02-16T04:50:03.100Z,0.00
2023-02-16T04:51:03.329Z,0.10
2023-02-16T04:52:03.236Z,0.10
2023-02-16T04:53:04.833Z,0.00
2023-02-16T04:54:04.841Z,0.10
2023-02-16T04:55:04.838Z,0.00
2023-02-16T04:56:04.803Z,0.00
2023-02-16T04:57:04.853Z,0.00
2023-02-16T04:58:04.978Z,0.00
2023-02-16T04:59:04.836Z,0.00
2023-02-16T05:00:05.021Z,0.00
2023-02-16T05:01:05.304Z,0.00
2023-02-16T05:02:02.700Z,0.00
2023-02-16T05:03:02.700Z,-0.10
2023-02-16T05:04:02.798Z,-0.10
2023-02-16T05:05:02.843Z,-0.10
2023-02-16T05:06:02.808Z,-0.10
2023-02-16T05:07:02.917Z,-0.10
2023-02-16T05:08:03.092Z,-0.10
2023-02-16T05:09:03.135Z,-0.10
2023-02-16T05:10:03.228Z,-0.20
2023-02-16T05:11:03.384Z,-0.20
2023-02-16T05:12:03.216Z,-0.20
2023-02-16T05:13:03.206Z,-0.20
2023-02-16T05:14:03.220Z,-0.20
2023-02-16T05:15:03.202Z,-0.20
2023-02-16T05:16:03.281Z,-0.20
2023-02-16T05:17:03.253Z,-0.20
2023-02-16T05:18:04.813Z,-0.20
2023-02-16T05:19:04.854Z,-0.20
2023-02-16T05:20:04.858Z,-0.20
2023-02-16T05:21:05.505Z,-0.20
2023-02-16T05:22:05.026Z,-0.20
2023-02-16T05:23:04.983Z,-0.30
2023-02-16T05:24:05.038Z,-0.30
2023-02-16T05:25:03.013Z,-0.30
2023-02-16T05:26:02.903Z,-0.30
2023-02-16T05:27:02.889Z,-0.30
2023-02-16T05:28:03.099Z,-0.30
2023-02-16T05:29:03.150Z,-0.30
2023-02-16T05:30:03.232Z,-0.30
2023-02-16T05:31:05.152Z,-0.30
2023-02-16T05:32:05.026Z,-0.30
2023-02-16T05:33:04.870Z,-0.30
2023-02-16T05:34:04.804Z,-0.30
2023-02-16T05:35:05.020Z,-0.30
2023-02-16T05:36:04.869Z,-0.30
2023-02-16T05:37:05.067Z,-0.30
2023-02-16T05:38:05.048Z,-0.30
2023-02-16T05:39:05.046Z,-0.30
2023-02-16T05:40:05.042Z,-0.30
2023-02-16T05:41:05.262Z,-0.40
2023-02-16T05:42:05.030Z,-0.40
2023-02-16T05:43:05.047Z,-0.40
2023-02-16T05:44:05.029Z,-0.40
2023-02-16T05:45:05.035Z,-0.40
2023-02-16T05:46:02.722Z,-0.50
2023-02-16T05:47:02.670Z,-0.50
2023-02-16T05:48:02.816Z,-0.50
2023-02-16T05:49:02.883Z,-0.50
2023-02-16T05:50:02.925Z,-0.50
2023-02-16T05:51:03.398Z,-0.50
2023-02-16T05:52:03.072Z,-0.60
2023-02-16T05:53:03.094Z,-0.60
2023-02-16T05:54:03.174Z,-0.60
2023-02-16T05:55:03.210Z,-0.60
2023-02-16T05:56:03.268Z,-0.60
2023-02-16T05:57:04.871Z,-0.60
2023-02-16T05:58:04.843Z,-0.60
2023-02-16T05:59:04.870Z,-0.60
2023-02-16T06:00:04.912Z,-0.60
2023-02-16T06:01:05.466Z,-0.60
2023-02-16T06:02:05.068Z,-0.60
2023-02-16T06:03:02.710Z,-0.60
2023-02-16T06:04:02.961Z,-0.60
2023-02-16T06:05:02.887Z,-0.60
2023-02-16T06:06:03.096Z,-0.60
2023-02-16T06:07:03.041Z,-0.60
2023-02-16T06:08:03.030Z,-0.60
2023-02-16T06:09:03.154Z,-0.60
2023-02-16T06:10:03.071Z,-0.70
2023-02-16T06:11:03.311Z,-0.70
2023-02-16T06:12:03.178Z,-0.60
2023-02-16T06:13:03.306Z,-0.70
2023-02-16T06:14:04.853Z,-0.70
2023-02-16T06:15:05.085Z,-0.70
2023-02-16T06:16:02.845Z,-0.70
2023-02-16T06:17:02.728Z,-0.70
2023-02-16T06:18:02.734Z,-0.70
2023-02-16T06:19:02.774Z,-0.70
2023-02-16T06:20:02.714Z,-0.70
2023-02-16T06:21:02.891Z,-0.70
2023-02-16T06:22:02.783Z,-0.70
2023-02-16T06:23:02.836Z,-0.70
2023-02-16T06:24:02.920Z,-0.70
2023-02-16T06:25:02.853Z,-0.70
2023-02-16T06:26:02.999Z,-0.70
2023-02-16T06:27:03.091Z,-0.70
2023-02-16T06:28:03.115Z,-0.70
2023-02-16T06:29:03.257Z,-0.70
2023-02-16T06:30:04.952Z,-0.70
2023-02-16T06:31:05.144Z,-0.70
2023-02-16T06:32:05.049Z,-0.80
2023-02-16T06:33:05.108Z,-0.80
2023-02-16T06:34:05.086Z,-0.80
2023-02-16T06:35:05.153Z,-0.80
2023-02-16T06:36:04.932Z,-0.80
2023-02-16T06:37:05.055Z,-0.80
2023-02-16T06:38:02.796Z,-0.80
2023-02-16T06:39:02.651Z,-0.80
2023-02-16T06:40:02.751Z,-0.80
2023-02-16T06:41:02.926Z,-0.80
2023-02-16T06:42:02.769Z,-0.80
2023-02-16T06:43:02.837Z,-0.80
2023-02-16T06:44:02.861Z,-0.80
2023-02-16T06:45:02.801Z,-0.80
2023-02-16T06:46:02.979Z,-0.80
2023-02-16T06:47:02.997Z,-0.80
2023-02-16T06:48:03.008Z,-0.80
2023-02-16T06:49:02.929Z,-0.70
2023-02-16T06:50:03.038Z,-0.80
2023-02-16T06:51:03.251Z,-0.70
2023-02-16T06:52:02.979Z,-0.70
2023-02-16T06:53:03.022Z,-0.70
2023-02-16T06:54:03.153Z,-0.70
2023-02-16T06:55:03.213Z,-0.70
2023-02-16T06:56:03.206Z,-0.70
2023-02-16T06:57:03.237Z,-0.70
2023-02-16T06:58:04.908Z,-0.70
2023-02-16T06:59:04.907Z,-0.70
2023-02-16T07:00:04.979Z,-0.70
2023-02-16T07:01:03.621Z,-0.60
2023-02-16T07:02:04.950Z,-0.60
2023-02-16T07:03:04.980Z,-0.60
2023-02-16T07:04:05.000Z,-0.60
2023-02-16T07:05:02.653Z,-0.60
2023-02-16T07:06:02.758Z,-0.60
2023-02-16T07:07:02.784Z,-0.60
2023-02-16T07:08:02.704Z,-0.60
2023-02-16T07:09:02.933Z,-0.60
2023-02-16T07:10:02.913Z,-0.50
2023-02-16T07:11:02.872Z,-0.50
2023-02-16T07:12:02.916Z,-0.50
2023-02-16T07:13:03.023Z,-0.50
2023-02-16T07:14:03.047Z,-0.50
2023-02-16T07:15:03.086Z,-0.50
2023-02-16T07:16:03.237Z,-0.50
2023-02-16T07:17:03.351Z,-0.40
2023-02-16T07:18:03.330Z,-0.40
2023-02-16T07:19:03.250Z,-0.30
2023-02-16T07:20:04.896Z,-0.30
2023-02-16T07:21:03.624Z,-0.30
2023-02-16T07:22:05.132Z,-0.30
2023-02-16T07:23:05.140Z,-0.20
2023-02-16T07:24:05.148Z,-0.20
2023-02-16T07:25:02.694Z,-0.10
2023-02-16T07:26:02.849Z,-0.10
2023-02-16T07:27:02.810Z,0.00
2023-02-16T07:28:02.908Z,0.00
2023-02-16T07:29:02.896Z,0.10
2023-02-16T07:30:03.006Z,0.20
2023-02-16T07:31:03.490Z,0.20
2023-02-16T07:32:03.200Z,0.30
2023-02-16T07:33:03.229Z,0.30
2023-02-16T07:34:03.304Z,0.40
2023-02-16T07:35:04.950Z,0.40
2023-02-16T07:36:04.951Z,0.40
2023-02-16T07:37:04.946Z,0.50
2023-02-16T07:38:04.973Z,0.50
2023-02-16T07:39:05.013Z,0.60
2023-02-16T07:40:04.920Z,0.60
2023-02-16T07:41:07.937Z,0.70
2023-02-16T07:42:05.005Z,0.70
2023-02-16T07:43:04.961Z,0.80
2023-02-16T07:44:04.997Z,0.80
2023-02-16T07:45:04.992Z,0.80
2023-02-16T07:46:02.745Z,0.90
2023-02-16T07:47:02.738Z,1.00
2023-02-16T07:48:02.718Z,1.00
2023-02-16T07:49:02.753Z,1.10
2023-02-16T07:50:02.828Z,1.10
2023-02-16T07:51:03.176Z,1.20
2023-02-16T07:52:03.010Z,1.20
2023-02-16T07:53:03.077Z,1.20
2023-02-16T07:54:05.158Z,1.30
2023-02-16T07:55:03.029Z,1.30
2023-02-16T07:56:03.159Z,1.40
2023-02-16T07:57:03.294Z,1.40
2023-02-16T07:58:03.353Z,1.50
2023-02-16T07:59:03.394Z,1.50
2023-02-16T08:00:05.154Z,1.50
2023-02-16T08:01:05.130Z,1.60
2023-02-16T08:02:05.142Z,1.60
2023-02-16T08:03:02.828Z,1.70
2023-02-16T08:04:02.690Z,1.70
2023-02-16T08:05:02.730Z,1.70
2023-02-16T08:06:02.824Z,1.70
2023-02-16T08:07:02.873Z,1.80
2023-02-16T08:08:02.948Z,1.80
2023-02-16T08:09:03.019Z,1.80
2023-02-16T08:10:03.146Z,1.80
2023-02-16T08:11:03.382Z,1.80
2023-02-16T08:12:03.134Z,1.80
2023-02-16T08:13:03.061Z,1.80
2023-02-16T08:14:03.082Z,1.90
2023-02-16T08:15:03.085Z,1.90
2023-02-16T08:16:03.291Z,1.90
2023-02-16T08:17:03.199Z,1.90
2023-02-16T08:18:03.147Z,2.00
2023-02-16T08:19:03.082Z,2.00
2023-02-16T08:20:03.170Z,2.10
2023-02-16T08:21:04.603Z,2.10
2023-02-16T08:22:03.373Z,2.20
2023-02-16T08:23:04.994Z,2.30
2023-02-16T08:24:04.977Z,2.30
2023-02-16T08:25:06.576Z,2.40
2023-02-16T08:26:05.358Z,2.40
2023-02-16T08:27:05.220Z,2.50
2023-02-16T08:28:02.651Z,2.50
2023-02-16T08:29:02.789Z,2.60
2023-02-16T08:30:02.797Z,2.60
2023-02-16T08:31:02.895Z,2.60
2023-02-16T08:32:02.990Z,2.70
2023-02-16T08:33:03.074Z,2.70
2023-02-16T08:34:03.235Z,2.70
2023-02-16T08:35:03.316Z,2.80
2023-02-16T08:36:03.675Z,2.80
2023-02-16T08:37:03.387Z,2.90
2023-02-16T08:38:03.406Z,2.90
2023-02-16T08:39:03.432Z,3.00
2023-02-16T08:40:05.056Z,3.00
2023-02-16T08:41:05.068Z,3.00
2023-02-16T08:42:05.068Z,3.10
2023-02-16T08:43:05.046Z,3.10
2023-02-16T08:44:05.209Z,3.20
2023-02-16T08:45:05.045Z,3.20
2023-02-16T08:46:03.101Z,3.30
2023-02-16T08:47:02.795Z,3.30
2023-02-16T08:48:02.798Z,3.40
2023-02-16T08:49:02.806Z,3.40
2023-02-16T08:50:02.735Z,3.50
2023-02-16T08:51:02.896Z,3.50
2023-02-16T08:52:02.925Z,3.60
2023-02-16T08:53:02.963Z,3.60
2023-02-16T08:54:04.872Z,3.70
2023-02-16T08:55:02.969Z,3.70
2023-02-16T08:56:03.112Z,3.80
2023-02-16T08:57:03.166Z,3.80
2023-02-16T08:58:03.096Z,3.80
2023-02-16T08:59:03.140Z,3.90
2023-02-16T09:00:03.212Z,3.90
2023-02-16T09:01:03.266Z,4.00
2023-02-16T09:02:03.350Z,4.00
2023-02-16T09:03:03.307Z,4.00
2023-02-16T09:04:03.271Z,4.10
2023-02-16T09:05:03.310Z,4.20
2023-02-16T09:06:03.766Z,4.20
2023-02-16T09:07:03.419Z,4.30
2023-02-16T09:08:05.042Z,4.30
2023-02-16T09:09:05.065Z,4.30
2023-02-16T09:10:05.093Z,4.40
2023-02-16T09:11:05.223Z,4.40
2023-02-16T09:12:05.074Z,4.50
2023-02-16T09:13:05.062Z,4.50
2023-02-16T09:14:02.691Z,4.60
2023-02-16T09:15:05.070Z,4.60
2023-02-16T09:16:05.589Z,4.60
2023-02-16T09:17:02.729Z,4.70
2023-02-16T09:18:02.821Z,4.80
2023-02-16T09:19:02.801Z,4.80
2023-02-16T09:20:02.910Z,4.90
2023-02-16T09:21:02.917Z,4.90
2023-02-16T09:22:02.931Z,5.00
2023-02-16T09:23:03.063Z,5.00
2023-02-16T09:24:03.008Z,5.10
2023-02-16T09:25:03.144Z,5.10
2023-02-16T09:26:03.537Z,5.20
2023-02-16T09:27:03.084Z,5.20
2023-02-16T09:28:03.161Z,5.30
2023-02-16T09:29:03.256Z,5.40
2023-02-16T09:30:03.363Z,5.40
2023-02-16T09:31:03.382Z,5.40
2023-02-16T09:32:03.442Z,5.50
2023-02-16T09:33:03.386Z,5.50
2023-02-16T09:34:03.302Z,5.60
2023-02-16T09:35:03.402Z,5.60
2023-02-16T09:36:03.659Z,5.70
2023-02-16T09:37:03.467Z,5.70
2023-02-16T09:38:03.478Z,5.80
2023-02-16T09:39:03.427Z,5.80
2023-02-16T09:40:03.453Z,5.90
2023-02-16T09:41:05.022Z,5.90
2023-02-16T09:42:05.012Z,5.90
2023-02-16T09:43:05.076Z,6.00
2023-02-16T09:44:02.729Z,6.00
2023-02-16T09:45:02.740Z,6.10
2023-02-16T09:46:02.939Z,6.10
2023-02-16T09:47:02.626Z,6.20
2023-02-16T09:48:02.711Z,6.20
2023-02-16T09:49:02.649Z,6.30
2023-02-16T09:50:02.759Z,6.30
2023-02-16T09:51:02.891Z,6.40
2023-02-16T09:52:02.947Z,6.40
2023-02-16T09:53:02.971Z,6.40
2023-02-16T09:54:03.010Z,6.50
2023-02-16T09:55:03.083Z,6.50
2023-02-16T09:56:03.291Z,6.60
2023-02-16T09:57:03.027Z,6.60
2023-02-16T09:58:03.109Z,6.60
2023-02-16T09:59:03.073Z,6.70
2023-02-16T10:00:03.029Z,6.70
2023-02-16T10:01:03.117Z,6.80
2023-02-16T10:02:03.039Z,6.80
2023-02-16T10:03:03.215Z,6.80
2023-02-16T10:04:03.348Z,6.90
2023-02-16T10:05:03.462Z,6.90
2023-02-16T10:06:03.605Z,6.90
2023-02-16T10:07:03.424Z,7.00
2023-02-16T10:08:05.121Z,7.00
2023-02-16T10:09:05.085Z,7.10
2023-02-16T10:10:02.667Z,7.10
2023-02-16T10:11:02.935Z,7.20
2023-02-16T10:12:02.768Z,7.20
2023-02-16T10:13:02.839Z,7.20
2023-02-16T10:14:02.935Z,7.30
2023-02-16T10:15:02.892Z,7.30
2023-02-16T10:16:03.099Z,7.40
2023-02-16T10:17:03.097Z,7.40
2023-02-16T10:18:03.149Z,7.40
2023-02-16T10:19:03.114Z,7.50
2023-02-16T10:20:03.313Z,7.50
2023-02-16T10:21:03.657Z,7.50
2023-02-16T10:22:03.274Z,7.60
2023-02-16T10:23:03.329Z,7.60
2023-02-16T10:24:03.311Z,7.70
2023-02-16T10:25:03.340Z,7.70
2023-02-16T10:26:03.470Z,7.70
2023-02-16T10:27:03.469Z,7.80
2023-02-16T10:28:05.115Z,7.80
2023-02-16T10:29:05.099Z,7.80
2023-02-16T10:30:02.657Z,7.80
2023-02-16T10:31:03.033Z,7.80
2023-02-16T10:32:02.832Z,7.90
2023-02-16T10:33:02.866Z,7.90
2023-02-16T10:34:02.889Z,7.90
2023-02-16T10:35:02.872Z,8.00
2023-02-16T10:36:03.046Z,8.00
2023-02-16T10:37:03.126Z,8.00
2023-02-16T10:38:03.260Z,8.00
2023-02-16T10:39:03.411Z,8.10
2023-02-16T10:40:03.404Z,8.10
2023-02-16T10:41:03.739Z,8.10
2023-02-16T10:42:03.496Z,8.10
2023-02-16T10:43:03.464Z,8.20
2023-02-16T10:44:05.125Z,8.20
2023-02-16T10:45:02.765Z,8.20
2023-02-16T10:46:02.738Z,8.20
2023-02-16T10:47:02.831Z,8.30
2023-02-16T10:48:02.837Z,8.30
2023-02-16T10:49:02.930Z,8.30
2023-02-16T10:50:02.845Z,8.30
2023-02-16T10:51:03.369Z,8.30
2023-02-16T10:52:02.886Z,8.30
2023-02-16T10:53:02.912Z,8.40
2023-02-16T10:54:02.902Z,8.40
2023-02-16T10:55:02.917Z,8.40
2023-02-16T10:56:03.073Z,8.40
2023-02-16T10:57:03.089Z,8.50
2023-02-16T10:58:03.121Z,8.50
2023-02-16T10:59:03.115Z,8.50
2023-02-16T11:00:03.065Z,8.50
2023-02-16T11:01:03.338Z,8.50
2023-02-16T11:02:03.207Z,8.60
2023-02-16T11:03:03.420Z,8.60
2023-02-16T11:04:03.344Z,8.60
2023-02-16T11:05:03.493Z,8.70
2023-02-16T11:06:03.694Z,8.70
2023-02-16T11:07:03.495Z,8.70
2023-02-16T11:08:03.540Z,8.80
2023-02-16T11:09:02.659Z,8.80
2023-02-16T11:10:02.658Z,8.80
2023-02-16T11:11:03.289Z,8.80
2023-02-16T11:12:02.866Z,8.90
2023-02-16T11:13:02.862Z,8.90
2023-02-16T11:14:02.894Z,8.90
2023-02-16T11:15:02.866Z,8.90
2023-02-16T11:16:02.950Z,9.00
2023-02-16T11:17:03.085Z,9.00
2023-02-16T11:18:02.974Z,9.00
2023-02-16T11:19:03.127Z,9.00
2023-02-16T11:20:03.197Z,9.00
2023-02-16T11:21:03.807Z,9.00
2023-02-16T11:22:03.343Z,9.00
2023-02-16T11:23:03.435Z,9.00
2023-02-16T11:24:03.445Z,9.10
2023-02-16T11:25:03.552Z,9.10
2023-02-16T11:26:05.132Z,9.10
2023-02-16T11:27:02.770Z,9.10
2023-02-16T11:28:02.961Z,9.10
2023-02-16T11:29:03.023Z,9.10
2023-02-16T11:30:03.085Z,9.20
2023-02-16T11:31:03.578Z,9.20
2023-02-16T11:32:03.166Z,9.20
2023-02-16T11:33:03.172Z,9.20
2023-02-16T11:34:05.584Z,9.20
2023-02-16T11:35:03.430Z,9.30
2023-02-16T11:36:03.296Z,9.30
2023-02-16T11:37:03.253Z,9.30
2023-02-16T11:38:03.369Z,9.30
2023-02-16T11:39:03.552Z,9.30
2023-02-16T11:40:02.712Z,9.30
2023-02-16T11:41:02.935Z,9.40
2023-02-16T11:42:02.643Z,9.40
2023-02-16T11:43:02.845Z,9.40
2023-02-16T11:44:02.833Z,9.40
2023-02-16T11:45:02.890Z,9.40
2023-02-16T11:46:03.020Z,9.50
2023-02-16T11:47:02.799Z,9.50
2023-02-16T11:48:02.849Z,9.50
2023-02-16T11:49:02.734Z,9.60
2023-02-16T11:50:02.761Z,9.60
2023-02-16T11:51:03.190Z,9.60
2023-02-16T11:52:02.853Z,9.60
2023-02-16T11:53:02.857Z,9.60
2023-02-16T11:54:03.025Z,9.70
2023-02-16T11:55:03.013Z,9.70
2023-02-16T11:56:03.401Z,9.70
2023-02-16T11:57:03.089Z,9.70
2023-02-16T11:58:03.154Z,9.70
2023-02-16T11:59:03.057Z,9.80
2023-02-16T12:00:03.136Z,9.80
2023-02-16T12:01:03.425Z,9.80
2023-02-16T12:02:03.233Z,9.80
2023-02-16T12:03:03.265Z,9.80
2023-02-16T12:04:03.377Z,9.80
2023-02-16T12:05:03.367Z,9.80
2023-02-16T12:06:03.359Z,9.80
2023-02-16T12:07:03.416Z,9.80
2023-02-16T12:08:03.517Z,9.90
2023-02-16T12:09:03.615Z,9.90
2023-02-16T12:10:03.631Z,9.90
2023-02-16T12:11:03.869Z,9.90
2023-02-16T12:12:02.651Z,9.90
2023-02-16T12:13:02.662Z,9.90
2023-02-16T12:14:02.744Z,9.90
2023-02-16T12:15:02.709Z,9.90
2023-02-16T12:16:03.007Z,9.90
2023-02-16T12:17:02.690Z,9.90
2023-02-16T12:18:02.800Z,9.90
2023-02-16T12:19:02.870Z,10.00
2023-02-16T12:20:02.890Z,10.00
2023-02-16T12:21:02.901Z,10.00
2023-02-16T12:22:02.984Z,10.00
2023-02-16T12:23:03.164Z,10.00
2023-02-16T12:24:03.279Z,10.00
2023-02-16T12:25:03.299Z,10.00
2023-02-16T12:26:03.488Z,10.00
2023-02-16T12:27:03.309Z,10.00
2023-02-16T12:28:03.389Z,10.00
2023-02-16T12:29:03.394Z,10.10
2023-02-16T12:30:03.458Z,10.10
2023-02-16T12:31:03.593Z,10.10
2023-02-16T12:32:02.685Z,10.10
2023-02-16T12:33:02.744Z,10.10
2023-02-16T12:34:02.769Z,10.10
2023-02-16T12:35:02.866Z,10.10
2023-02-16T12:36:03.389Z,10.10
2023-02-16T12:37:03.014Z,10.20
2023-02-16T12:38:03.114Z,10.20
2023-02-16T12:39:03.239Z,10.20
2023-02-16T12:40:03.265Z,10.20
2023-02-16T12:41:03.275Z,10.20
2023-02-16T12:42:03.244Z,10.20
2023-02-16T12:43:03.157Z,10.20
2023-02-16T12:44:03.207Z,10.20
2023-02-16T12:45:03.286Z,10.30
2023-02-16T12:46:03.503Z,10.30
2023-02-16T12:47:03.316Z,10.30
2023-02-16T12:48:03.519Z,10.30
2023-02-16T12:49:03.561Z,10.30
2023-02-16T12:50:03.553Z,10.30
2023-02-16T12:51:03.941Z,10.30
2023-02-16T12:52:03.503Z,10.30
2023-02-16T12:53:03.623Z,10.30
2023-02-16T12:54:03.606Z,10.30
2023-02-16T12:55:02.695Z,10.30
2023-02-16T12:56:03.011Z,10.30
2023-02-16T12:57:02.754Z,10.30
2023-02-16T12:58:02.685Z,10.30
2023-02-16T12:59:02.738Z,10.30
2023-02-16T13:00:02.785Z,10.30
2023-02-16T13:01:03.219Z,10.30
2023-02-16T13:02:03.080Z,10.30
2023-02-16T13:03:04.883Z,10.30
2023-02-16T13:04:03.202Z,10.30
2023-02-16T13:05:03.184Z,10.30
2023-02-16T13:06:03.499Z,10.30
2023-02-16T13:07:03.335Z,10.30
2023-02-16T13:08:03.376Z,10.30
2023-02-16T13:09:03.428Z,10.30
2023-02-16T13:10:03.421Z,10.20
2023-02-16T13:11:03.831Z,10.20